MAL weather

Malone Dufort Airport
Malone, New York, United States

Public forecast

Using degrees Fahrenheit for public forecast. Weather courtesy of forecast.io.

METAR (pilot weather report)

Closest report is Massena International Richards Field, 22.5 nm (41.7 km) WNW. Retrieved 2019/05/24 07:16 UTC (0 seconds ago):

KMSS 240716Z AUTO 26013KT 10SM BKN019 BKN029 OVC035 16/11 A2973 RMK AO2 T01560111

TAF (pilot weather forecast)

Closest forecast is Massena International Richards Field, 22.5 nm (41.7 km) WNW. Retrieved 2019/05/24 06:28 UTC (41 minutes ago):

TAF KMSS 240525Z 2406/2506 25014G22KT P6SM SCT025 OVC050 FM240900 30012G20KT P6SM OVC020 FM241400 33010KT P6SM BKN025 FM242000 36007KT P6SM BKN050 FM250200 VRB03KT P6SM FEW200